Time;durP1;ratioP1;P1;durP2;ratioP2;P2;SDS_P1;SDS_P2;PMS_P1;PMS_P2;Temp;Humidity;BMP_temperature;BMP_pressure;BME280_temperature;BME280_humidity;BME280_pressure;Samples;Min_cycle;Max_cycle;Signal;HPM_P1;HPM_P2
2021/03/17 00:00:15;;;;;;;;;;;15.80;62.70;;;;;;5050535;28;19923;-73
2021/03/17 00:02:41;;;;;;;;;;;15.80;62.80;;;;;;5049847;28;19921;-73
2021/03/17 00:05:07;;;;;;;;;;;15.80;62.70;;;;;;5053359;28;19913;-73
2021/03/17 00:07:33;;;;;;;;;;;15.80;62.80;;;;;;5028775;28;19913;-73
2021/03/17 00:09:58;;;;;;;;;;;15.80;62.80;;;;;;5050621;28;20285;-73
2021/03/17 00:12:24;;;;;;;;;;;15.80;62.80;;;;;;5061577;28;19917;-73
2021/03/17 00:14:49;;;;;;;;;;;15.80;62.80;;;;;;5047610;28;19967;-74
2021/03/17 00:17:15;;;;;;;;;;;15.80;62.80;;;;;;5035728;28;19920;-73
2021/03/17 00:19:40;;;;;;;;;;;15.80;62.70;;;;;;5032904;28;19913;-73
2021/03/17 00:22:07;;;;;;;;;;;15.80;62.80;;;;;;5045958;28;19917;-74
2021/03/17 00:24:33;;;;;;;;;;;15.80;62.70;;;;;;5034316;28;20016;-74
2021/03/17 00:26:58;;;;;;;;;;;15.80;62.70;;;;;;5034632;28;19999;-73
2021/03/17 00:29:24;;;;;;;;;;;15.80;62.70;;;;;;5043931;28;20310;-73
2021/03/17 00:31:55;;;;;;;;;;;15.80;62.70;;;;;;5047973;28;19920;-77
2021/03/17 00:34:21;;;;;;;;;;;15.80;62.70;;;;;;5051781;28;19920;-73
2021/03/17 00:36:46;;;;;;;;;;;15.80;62.70;;;;;;5068551;28;20274;-74
2021/03/17 00:39:12;;;;;;;;;;;15.80;62.70;;;;;;5048388;28;19920;-74
2021/03/17 00:41:38;;;;;;;;;;;15.80;62.70;;;;;;5066867;28;19924;-73
2021/03/17 00:44:03;;;;;;;;;;;15.80;62.80;;;;;;5031561;28;20319;-74
2021/03/17 00:46:29;;;;;;;;;;;15.80;62.70;;;;;;5049090;28;19921;-74
2021/03/17 00:48:54;;;;;;;;;;;15.80;62.70;;;;;;5032540;28;19979;-73
2021/03/17 00:51:20;;;;;;;;;;;15.80;62.80;;;;;;5028280;28;19951;-73
2021/03/17 00:53:45;;;;;;;;;;;15.80;62.80;;;;;;5047671;28;19913;-73
2021/03/17 00:56:11;;;;;;;;;;;15.80;62.80;;;;;;5051618;28;19913;-76
2021/03/17 00:58:36;;;;;;;;;;;15.80;62.70;;;;;;5046213;28;19991;-73
2021/03/17 01:01:02;;;;;;;;;;;15.80;62.80;;;;;;5043704;28;19917;-75
2021/03/17 01:03:27;;;;;;;;;;;15.80;62.80;;;;;;5033335;28;20386;-74
2021/03/17 01:05:53;;;;;;;;;;;15.80;62.80;;;;;;5049978;28;19913;-74
2021/03/17 01:08:18;;;;;;;;;;;15.80;62.80;;;;;;5027377;28;19928;-74
2021/03/17 01:10:45;;;;;;;;;;;15.80;62.70;;;;;;5032740;28;19951;-74
2021/03/17 01:13:11;;;;;;;;;;;15.80;62.70;;;;;;5046832;28;19920;-74
2021/03/17 01:15:37;;;;;;;;;;;15.80;62.70;;;;;;5047079;28;21322;-73
2021/03/17 01:18:03;;;;;;;;;;;15.80;62.80;;;;;;5029809;28;20277;-74
2021/03/17 01:20:29;;;;;;;;;;;15.80;62.70;;;;;;5050362;28;20036;-77
2021/03/17 01:22:55;;;;;;;;;;;15.80;62.80;;;;;;5030406;28;19924;-74
2021/03/17 01:25:27;;;;;;;;;;;15.80;62.80;;;;;;5033598;28;19928;-74
2021/03/17 01:27:52;;;;;;;;;;;15.70;62.80;;;;;;5061970;28;19936;-74
2021/03/17 01:30:22;;;;;;;;;;;15.80;62.80;;;;;;5046617;28;19916;-74
2021/03/17 01:32:48;;;;;;;;;;;15.80;62.80;;;;;;5048116;28;19934;-74
2021/03/17 01:35:14;;;;;;;;;;;15.70;62.80;;;;;;5046653;28;19928;-74
2021/03/17 01:37:40;;;;;;;;;;;15.70;62.70;;;;;;5032158;28;19912;-74
2021/03/17 01:40:06;;;;;;;;;;;15.70;62.80;;;;;;5051921;28;20313;-74
2021/03/17 01:42:32;;;;;;;;;;;15.80;62.80;;;;;;5048325;28;20054;-74
2021/03/17 01:44:57;;;;;;;;;;;15.70;62.80;;;;;;5025548;28;20407;-75
2021/03/17 01:47:23;;;;;;;;;;;15.70;62.80;;;;;;5049631;28;19928;-75
2021/03/17 01:49:48;;;;;;;;;;;15.80;62.80;;;;;;5046164;28;19924;-74
2021/03/17 01:52:14;;;;;;;;;;;15.70;62.80;;;;;;5051806;28;20274;-74
2021/03/17 01:54:39;;;;;;;;;;;15.70;62.80;;;;;;5033337;28;19912;-74
2021/03/17 01:57:05;;;;;;;;;;;15.70;62.80;;;;;;5025087;28;20413;-75
2021/03/17 01:59:32;;;;;;;;;;;15.70;62.80;;;;;;5045681;28;19920;-74
2021/03/17 02:01:58;;;;;;;;;;;15.70;62.80;;;;;;5044622;28;20370;-74
2021/03/17 02:04:23;;;;;;;;;;;15.70;62.80;;;;;;5046040;28;19924;-74
2021/03/17 02:06:51;;;;;;;;;;;15.70;62.70;;;;;;5021305;28;20283;-74
2021/03/17 02:09:17;;;;;;;;;;;15.80;62.80;;;;;;5049362;28;19921;-75
2021/03/17 02:11:46;;;;;;;;;;;15.70;62.80;;;;;;5049010;28;19928;-75
2021/03/17 02:14:30;;;;;;;;;;;15.70;62.80;;;;;;5045421;28;19982;-74
2021/03/17 02:17:04;;;;;;;;;;;15.70;62.70;;;;;;5047171;28;19974;-74
2021/03/17 02:19:42;;;;;;;;;;;15.70;62.80;;;;;;5031392;28;19947;-74
2021/03/17 02:22:07;;;;;;;;;;;15.70;62.80;;;;;;5060310;28;19913;-74
2021/03/17 02:24:39;;;;;;;;;;;15.70;62.80;;;;;;5042328;28;20564;-75
2021/03/17 02:27:07;;;;;;;;;;;15.70;62.80;;;;;;5046090;28;19913;-74
2021/03/17 02:29:38;;;;;;;;;;;15.70;62.80;;;;;;5045538;28;19920;-76
2021/03/17 02:32:08;;;;;;;;;;;15.80;62.80;;;;;;5045288;28;19913;-74
2021/03/17 02:34:37;;;;;;;;;;;15.70;62.70;;;;;;5046830;28;19928;-75
2021/03/17 02:37:04;;;;;;;;;;;15.70;62.80;;;;;;5049794;28;19920;-74
2021/03/17 02:39:34;;;;;;;;;;;15.70;62.80;;;;;;5030803;28;19929;-75
2021/03/17 02:42:19;;;;;;;;;;;15.70;62.80;;;;;;5025788;28;19928;-74
2021/03/17 02:45:08;;;;;;;;;;;15.70;62.80;;;;;;5042173;28;20284;-74
2021/03/17 02:47:37;;;;;;;;;;;15.70;62.80;;;;;;5020276;28;19913;-75
2021/03/17 02:50:03;;;;;;;;;;;15.70;62.80;;;;;;5043062;28;20383;-73
2021/03/17 02:52:31;;;;;;;;;;;15.70;62.80;;;;;;5050817;28;20421;-74
2021/03/17 02:54:57;;;;;;;;;;;15.70;62.80;;;;;;5051533;28;19920;-74
2021/03/17 02:57:24;;;;;;;;;;;15.70;62.80;;;;;;5051106;28;19913;-74
2021/03/17 02:59:51;;;;;;;;;;;15.70;62.80;;;;;;5039318;28;19917;-73
2021/03/17 03:02:17;;;;;;;;;;;15.70;62.70;;;;;;5044786;28;19917;-73
2021/03/17 03:04:43;;;;;;;;;;;15.70;62.80;;;;;;5026536;28;20015;-73
2021/03/17 03:07:09;;;;;;;;;;;15.70;62.80;;;;;;5028171;28;20059;-74
2021/03/17 03:09:35;;;;;;;;;;;15.70;62.80;;;;;;5036982;28;19920;-73
2021/03/17 03:12:00;;;;;;;;;;;15.70;62.80;;;;;;5049059;28;19913;-74
2021/03/17 03:14:26;;;;;;;;;;;15.80;62.80;;;;;;5047865;28;19912;-75
2021/03/17 03:16:57;;;;;;;;;;;15.70;62.80;;;;;;5028203;28;19940;-74
2021/03/17 03:19:23;;;;;;;;;;;15.70;62.80;;;;;;5042865;28;19920;-74
2021/03/17 03:21:49;;;;;;;;;;;15.70;62.70;;;;;;5054104;28;19928;-73
2021/03/17 03:24:15;;;;;;;;;;;15.70;62.80;;;;;;5051506;28;19916;-74
2021/03/17 03:26:41;;;;;;;;;;;15.70;62.80;;;;;;5052068;28;19945;-73
2021/03/17 03:29:07;;;;;;;;;;;15.70;62.80;;;;;;5049423;28;20389;-75
2021/03/17 03:31:33;;;;;;;;;;;15.70;62.80;;;;;;5048255;28;19921;-74
2021/03/17 03:33:59;;;;;;;;;;;15.70;62.80;;;;;;5029982;28;19916;-74
2021/03/17 03:36:26;;;;;;;;;;;15.70;62.80;;;;;;5050969;28;19919;-73
2021/03/17 03:38:52;;;;;;;;;;;15.70;62.80;;;;;;5053747;28;19920;-75
2021/03/17 03:41:17;;;;;;;;;;;15.70;62.80;;;;;;5049125;28;20334;-76
2021/03/17 03:43:43;;;;;;;;;;;15.70;62.70;;;;;;5050733;28;19917;-73
2021/03/17 03:46:08;;;;;;;;;;;15.70;62.70;;;;;;5048757;28;19999;-74
2021/03/17 03:48:36;;;;;;;;;;;15.70;62.70;;;;;;5065118;28;19939;-74
2021/03/17 03:51:02;;;;;;;;;;;15.70;62.70;;;;;;5049404;28;20337;-73
2021/03/17 03:53:28;;;;;;;;;;;15.70;62.70;;;;;;5036954;28;20016;-74
2021/03/17 03:56:07;;;;;;;;;;;15.70;62.80;;;;;;5066335;28;19913;-74
2021/03/17 03:58:53;;;;;;;;;;;15.70;62.80;;;;;;5048377;28;19916;-75
2021/03/17 04:01:38;;;;;;;;;;;15.70;62.80;;;;;;5046463;28;19954;-76
2021/03/17 04:04:04;;;;;;;;;;;15.70;62.80;;;;;;5044036;28;19994;-76
2021/03/17 04:06:31;;;;;;;;;;;15.70;62.80;;;;;;5049226;28;19928;-75
2021/03/17 04:08:58;;;;;;;;;;;15.70;62.80;;;;;;5048202;28;20358;-73
2021/03/17 04:11:24;;;;;;;;;;;15.70;62.70;;;;;;5032354;28;19913;-74
2021/03/17 04:13:50;;;;;;;;;;;15.70;62.80;;;;;;5026838;28;19991;-73
2021/03/17 04:16:16;;;;;;;;;;;15.70;62.80;;;;;;5045346;28;20035;-74
2021/03/17 04:18:44;;;;;;;;;;;15.70;62.80;;;;;;5022242;28;19920;-73
2021/03/17 04:21:16;;;;;;;;;;;15.70;62.80;;;;;;5022122;28;20434;-73
2021/03/17 04:23:43;;;;;;;;;;;15.70;62.80;;;;;;5035096;28;19986;-73
2021/03/17 04:26:09;;;;;;;;;;;15.70;62.80;;;;;;5050390;28;20007;-74
2021/03/17 04:28:36;;;;;;;;;;;15.70;62.80;;;;;;5048797;28;20020;-74
2021/03/17 04:31:02;;;;;;;;;;;15.70;62.80;;;;;;5045792;28;19913;-74
2021/03/17 04:33:29;;;;;;;;;;;15.70;62.70;;;;;;5044187;28;19942;-73
2021/03/17 04:35:56;;;;;;;;;;;15.70;62.80;;;;;;5027866;28;20283;-74
2021/03/17 04:38:23;;;;;;;;;;;15.70;62.80;;;;;;5046681;28;20007;-73
2021/03/17 04:40:49;;;;;;;;;;;15.70;62.80;;;;;;5029415;28;19971;-74
2021/03/17 04:43:15;;;;;;;;;;;15.70;62.80;;;;;;5044457;28;19928;-75
2021/03/17 04:45:41;;;;;;;;;;;15.70;62.80;;;;;;5027234;28;19921;-73
2021/03/17 04:48:07;;;;;;;;;;;15.70;62.80;;;;;;5044217;28;19921;-75
2021/03/17 04:50:32;;;;;;;;;;;15.70;62.80;;;;;;5035508;28;19924;-74
2021/03/17 04:52:58;;;;;;;;;;;15.70;62.80;;;;;;5043975;28;19913;-74
2021/03/17 04:55:24;;;;;;;;;;;15.70;62.80;;;;;;5046145;28;20351;-74
2021/03/17 04:57:51;;;;;;;;;;;15.70;62.80;;;;;;5044361;28;19967;-74
2021/03/17 05:00:17;;;;;;;;;;;15.70;62.80;;;;;;5021856;28;19967;-74
2021/03/17 05:02:45;;;;;;;;;;;15.70;62.80;;;;;;5044735;28;19925;-74
2021/03/17 05:05:11;;;;;;;;;;;15.70;62.80;;;;;;5051843;28;19913;-74
2021/03/17 05:07:37;;;;;;;;;;;15.70;62.80;;;;;;5046415;28;19967;-73
2021/03/17 05:10:03;;;;;;;;;;;15.70;62.80;;;;;;5035984;28;19968;-74
2021/03/17 05:12:29;;;;;;;;;;;15.70;62.80;;;;;;5035381;28;19921;-74
2021/03/17 05:14:56;;;;;;;;;;;15.60;62.80;;;;;;5027139;28;19921;-74
2021/03/17 05:17:22;;;;;;;;;;;15.70;62.80;;;;;;5031574;28;20007;-74
2021/03/17 05:19:48;;;;;;;;;;;15.70;62.80;;;;;;5030904;28;19913;-74
2021/03/17 05:22:14;;;;;;;;;;;15.70;62.80;;;;;;5049517;28;19924;-74
2021/03/17 05:24:40;;;;;;;;;;;15.70;62.80;;;;;;5034252;28;19909;-74
2021/03/17 05:27:08;;;;;;;;;;;15.70;62.80;;;;;;5047405;28;20007;-74
2021/03/17 05:29:34;;;;;;;;;;;15.70;62.80;;;;;;5029904;28;20413;-73
2021/03/17 05:32:00;;;;;;;;;;;15.60;62.80;;;;;;5041156;28;19924;-75
2021/03/17 05:34:25;;;;;;;;;;;15.60;62.80;;;;;;5021593;28;19913;-74
2021/03/17 05:36:51;;;;;;;;;;;15.70;62.80;;;;;;5051427;28;19916;-73
2021/03/17 05:39:16;;;;;;;;;;;15.70;62.80;;;;;;5049745;28;19921;-73
2021/03/17 05:41:42;;;;;;;;;;;15.70;62.80;;;;;;5048272;28;19920;-77
2021/03/17 05:44:07;;;;;;;;;;;15.70;62.80;;;;;;5046917;28;20404;-74
2021/03/17 05:46:33;;;;;;;;;;;15.70;62.80;;;;;;5029699;28;19913;-74
2021/03/17 05:48:59;;;;;;;;;;;15.70;62.80;;;;;;5050523;28;20382;-73
2021/03/17 05:51:24;;;;;;;;;;;15.70;62.80;;;;;;5040227;28;19913;-74
2021/03/17 05:53:50;;;;;;;;;;;15.70;62.80;;;;;;5028767;28;20330;-75
2021/03/17 05:56:16;;;;;;;;;;;15.70;62.80;;;;;;5028932;28;20437;-73
2021/03/17 05:58:42;;;;;;;;;;;15.70;62.80;;;;;;5041533;28;19924;-74
2021/03/17 06:01:08;;;;;;;;;;;15.70;62.80;;;;;;5045426;28;19916;-74
2021/03/17 06:03:36;;;;;;;;;;;15.70;62.70;;;;;;5028503;28;20350;-74
2021/03/17 06:06:03;;;;;;;;;;;15.70;62.70;;;;;;5042368;28;19959;-75
2021/03/17 06:08:31;;;;;;;;;;;15.70;62.70;;;;;;5047135;28;20024;-74
2021/03/17 06:10:57;;;;;;;;;;;15.70;62.70;;;;;;5048415;28;19952;-73
2021/03/17 06:13:25;;;;;;;;;;;15.70;62.60;;;;;;5050280;28;20003;-73
2021/03/17 06:15:52;;;;;;;;;;;15.70;62.60;;;;;;5027509;28;19959;-73
2021/03/17 06:18:27;;;;;;;;;;;15.70;62.60;;;;;;5041757;28;19913;-75
2021/03/17 06:20:54;;;;;;;;;;;15.70;62.60;;;;;;5030997;28;19921;-74
2021/03/17 06:23:20;;;;;;;;;;;15.70;62.50;;;;;;5050820;28;20398;-73
2021/03/17 06:25:46;;;;;;;;;;;15.70;62.50;;;;;;5032510;28;19939;-73
2021/03/17 06:28:12;;;;;;;;;;;15.70;62.60;;;;;;5029085;28;19956;-74
2021/03/17 06:30:38;;;;;;;;;;;15.70;62.60;;;;;;5029071;28;19995;-73
2021/03/17 06:33:04;;;;;;;;;;;15.70;62.60;;;;;;5028175;28;20431;-74
2021/03/17 06:35:29;;;;;;;;;;;15.70;62.60;;;;;;5028187;28;19917;-74
2021/03/17 06:37:55;;;;;;;;;;;15.70;62.60;;;;;;5034559;28;20008;-73
2021/03/17 06:40:27;;;;;;;;;;;15.70;62.60;;;;;;5047246;28;19925;-77
2021/03/17 06:42:53;;;;;;;;;;;15.70;62.60;;;;;;5048514;28;19956;-74
2021/03/17 06:45:33;;;;;;;;;;;15.70;62.60;;;;;;5024235;28;19917;-78
2021/03/17 06:48:22;;;;;;;;;;;15.70;62.50;;;;;;5048485;28;19920;-74
2021/03/17 06:51:08;;;;;;;;;;;15.70;62.50;;;;;;5031828;28;19921;-74
2021/03/17 06:53:34;;;;;;;;;;;15.70;62.50;;;;;;5048295;28;19919;-74
2021/03/17 06:56:09;;;;;;;;;;;15.80;62.50;;;;;;5051437;28;20007;-74
2021/03/17 06:58:39;;;;;;;;;;;15.70;62.50;;;;;;5045200;28;19920;-74
2021/03/17 07:01:04;;;;;;;;;;;15.70;62.50;;;;;;5047837;28;20011;-74
2021/03/17 07:03:30;;;;;;;;;;;15.80;62.50;;;;;;5028538;28;20035;-75
2021/03/17 07:05:55;;;;;;;;;;;15.70;62.50;;;;;;5063202;28;19939;-74
2021/03/17 07:08:28;;;;;;;;;;;15.70;62.50;;;;;;5049785;28;19940;-76
2021/03/17 07:11:00;;;;;;;;;;;15.80;62.50;;;;;;5031521;28;19917;-74
2021/03/17 07:13:27;;;;;;;;;;;15.80;62.40;;;;;;5043656;28;19917;-76
2021/03/17 07:15:52;;;;;;;;;;;15.80;62.40;;;;;;5040534;28;19913;-75
2021/03/17 07:18:25;;;;;;;;;;;15.70;62.40;;;;;;5035483;28;20003;-75
2021/03/17 07:20:56;;;;;;;;;;;15.80;62.40;;;;;;5029343;28;20247;-74
2021/03/17 07:23:23;;;;;;;;;;;15.80;62.40;;;;;;5050617;28;20035;-74
2021/03/17 07:26:24;;;;;;;;;;;15.80;62.30;;;;;;5032466;28;20439;-74
2021/03/17 07:28:51;;;;;;;;;;;15.80;62.40;;;;;;4985814;28;19921;-76
2021/03/17 07:31:23;;;;;;;;;;;15.80;62.40;;;;;;5030317;28;20003;-75
2021/03/17 07:33:49;;;;;;;;;;;15.80;62.40;;;;;;5045096;28;20367;-74
2021/03/17 07:36:41;;;;;;;;;;;15.80;62.30;;;;;;5047906;28;19969;-75
2021/03/17 07:39:11;;;;;;;;;;;15.80;62.30;;;;;;5040986;28;19927;-74
2021/03/17 07:41:37;;;;;;;;;;;15.80;62.40;;;;;;5049502;28;19940;-74
2021/03/17 07:44:04;;;;;;;;;;;15.80;62.30;;;;;;5044836;28;20017;-76
2021/03/17 07:46:30;;;;;;;;;;;15.80;62.20;;;;;;5043128;28;19921;-76
2021/03/17 07:48:56;;;;;;;;;;;15.80;62.20;;;;;;5040403;28;20386;-75
2021/03/17 07:51:22;;;;;;;;;;;15.80;62.10;;;;;;5031129;28;19919;-74
2021/03/17 07:53:51;;;;;;;;;;;15.80;62.10;;;;;;5011443;28;19917;-74
2021/03/17 07:56:20;;;;;;;;;;;15.80;62.10;;;;;;5034557;28;20263;-76
2021/03/17 07:58:47;;;;;;;;;;;15.80;62.00;;;;;;5035111;28;19952;-74
2021/03/17 08:01:13;;;;;;;;;;;15.90;62.00;;;;;;5049082;28;19928;-74
2021/03/17 08:03:40;;;;;;;;;;;15.90;62.00;;;;;;5029313;28;19920;-74
2021/03/17 08:06:05;;;;;;;;;;;15.90;62.00;;;;;;5053148;28;19913;-74
2021/03/17 08:08:31;;;;;;;;;;;15.90;61.90;;;;;;5033256;28;19919;-75
2021/03/17 08:10:57;;;;;;;;;;;15.80;61.90;;;;;;5049463;28;19942;-76
2021/03/17 08:13:23;;;;;;;;;;;15.90;61.90;;;;;;5028779;28;19917;-74
2021/03/17 08:15:48;;;;;;;;;;;15.90;61.80;;;;;;5044984;28;20382;-74
2021/03/17 08:18:33;;;;;;;;;;;15.90;61.80;;;;;;5031007;28;19913;-74
2021/03/17 08:20:59;;;;;;;;;;;15.90;61.80;;;;;;5055310;28;19920;-73
2021/03/17 08:23:38;;;;;;;;;;;15.90;61.80;;;;;;5034307;28;20401;-74
2021/03/17 08:26:04;;;;;;;;;;;15.90;61.80;;;;;;5048837;28;19914;-73
2021/03/17 08:28:30;;;;;;;;;;;15.90;61.80;;;;;;5047359;28;19931;-74
2021/03/17 08:30:56;;;;;;;;;;;16.00;61.60;;;;;;5050243;28;19975;-75
2021/03/17 08:33:32;;;;;;;;;;;16.00;61.60;;;;;;5048132;28;19966;-74
2021/03/17 08:36:02;;;;;;;;;;;16.00;61.50;;;;;;5045265;28;20300;-73
2021/03/17 08:38:46;;;;;;;;;;;16.00;61.50;;;;;;5031955;28;19972;-73
2021/03/17 08:41:12;;;;;;;;;;;16.00;61.40;;;;;;5062446;28;19928;-75
2021/03/17 08:43:41;;;;;;;;;;;16.10;61.30;;;;;;5042680;28;19928;-73
2021/03/17 08:46:09;;;;;;;;;;;16.10;61.20;;;;;;5024382;28;20003;-75
2021/03/17 08:48:53;;;;;;;;;;;16.10;61.10;;;;;;5043851;28;20291;-74
2021/03/17 08:51:38;;;;;;;;;;;16.10;61.20;;;;;;5052998;28;19912;-73
2021/03/17 08:54:24;;;;;;;;;;;16.10;61.10;;;;;;5048198;28;20386;-73
2021/03/17 08:56:49;;;;;;;;;;;16.20;61.10;;;;;;5053273;28;19921;-74
2021/03/17 08:59:16;;;;;;;;;;;16.20;61.00;;;;;;5030668;28;19913;-74
2021/03/17 09:01:41;;;;;;;;;;;16.20;61.10;;;;;;5059133;28;19972;-74
2021/03/17 09:04:07;;;;;;;;;;;16.10;61.10;;;;;;5027843;28;19928;-74
2021/03/17 09:06:35;;;;;;;;;;;16.10;61.20;;;;;;5048561;28;19916;-77
2021/03/17 09:09:06;;;;;;;;;;;16.10;61.30;;;;;;5060082;28;19916;-74
2021/03/17 09:11:32;;;;;;;;;;;16.10;61.20;;;;;;5042127;28;19913;-74
2021/03/17 09:14:00;;;;;;;;;;;16.20;61.20;;;;;;5034170;28;19963;-73
2021/03/17 09:16:26;;;;;;;;;;;16.20;61.00;;;;;;5021326;28;20312;-74
2021/03/17 09:19:01;;;;;;;;;;;16.30;60.80;;;;;;5061020;28;19912;-74
2021/03/17 09:21:29;;;;;;;;;;;16.30;60.60;;;;;;5046542;28;19943;-74
2021/03/17 09:23:55;;;;;;;;;;;16.30;60.60;;;;;;5034664;28;19913;-76
2021/03/17 09:26:28;;;;;;;;;;;16.30;60.70;;;;;;5059405;28;19945;-75
2021/03/17 09:28:54;;;;;;;;;;;16.30;60.70;;;;;;5022068;28;19921;-76
2021/03/17 09:31:22;;;;;;;;;;;16.30;60.70;;;;;;5045173;28;19920;-74
2021/03/17 09:33:48;;;;;;;;;;;16.30;60.60;;;;;;5046015;28;19909;-77
2021/03/17 09:36:17;;;;;;;;;;;16.30;60.60;;;;;;5045950;28;19917;-74
2021/03/17 09:38:53;;;;;;;;;;;16.30;60.60;;;;;;5049846;28;20496;-74
2021/03/17 09:41:23;;;;;;;;;;;16.20;60.70;;;;;;5046192;28;20067;-73
2021/03/17 09:43:50;;;;;;;;;;;16.20;60.80;;;;;;5065906;28;19927;-74
2021/03/17 09:46:31;;;;;;;;;;;16.20;60.80;;;;;;5027021;28;19920;-74
2021/03/17 09:49:07;;;;;;;;;;;16.20;60.80;;;;;;5062285;28;20039;-74
2021/03/17 09:51:35;;;;;;;;;;;16.20;60.90;;;;;;5033543;28;20354;-74
2021/03/17 09:54:03;;;;;;;;;;;16.20;60.90;;;;;;5024231;28;19963;-74
2021/03/17 09:56:45;;;;;;;;;;;16.20;60.80;;;;;;5036569;28;20592;-74
2021/03/17 09:59:12;;;;;;;;;;;16.30;60.70;;;;;;5026451;28;19952;-74
2021/03/17 10:01:54;;;;;;;;;;;16.30;60.60;;;;;;5028319;28;20357;-74
2021/03/17 10:04:21;;;;;;;;;;;16.30;60.60;;;;;;5031879;28;19919;-74
2021/03/17 10:06:46;;;;;;;;;;;16.20;60.70;;;;;;5033803;28;19967;-74
2021/03/17 10:09:12;;;;;;;;;;;16.20;60.80;;;;;;5033785;28;19951;-73
2021/03/17 10:11:37;;;;;;;;;;;16.20;60.80;;;;;;5033537;28;20278;-73
2021/03/17 10:14:09;;;;;;;;;;;16.20;60.80;;;;;;5045558;28;19917;-75
2021/03/17 10:16:35;;;;;;;;;;;16.20;60.90;;;;;;5045150;28;19913;-73
2021/03/17 10:19:00;;;;;;;;;;;16.20;60.90;;;;;;5046762;28;20011;-73
2021/03/17 10:21:26;;;;;;;;;;;16.20;60.80;;;;;;5050801;28;19970;-73
2021/03/17 10:23:52;;;;;;;;;;;16.20;60.80;;;;;;5045728;28;19909;-74
2021/03/17 10:26:17;;;;;;;;;;;16.20;60.80;;;;;;5059976;28;19913;-75
2021/03/17 10:28:43;;;;;;;;;;;16.10;60.90;;;;;;5027496;28;19917;-75
2021/03/17 10:31:09;;;;;;;;;;;16.20;61.00;;;;;;5043307;28;19924;-73
2021/03/17 10:33:34;;;;;;;;;;;16.20;61.00;;;;;;5027824;28;19920;-73
2021/03/17 10:36:00;;;;;;;;;;;16.10;61.00;;;;;;5035098;28;19909;-74
2021/03/17 10:38:35;;;;;;;;;;;16.10;61.00;;;;;;5046250;28;19920;-73
2021/03/17 10:41:00;;;;;;;;;;;16.20;61.00;;;;;;5048160;28;19921;-73
2021/03/17 10:43:32;;;;;;;;;;;16.20;61.00;;;;;;5041869;28;19920;-73
2021/03/17 10:46:03;;;;;;;;;;;16.20;60.80;;;;;;5048029;28;19914;-74
2021/03/17 10:48:29;;;;;;;;;;;16.20;60.80;;;;;;5029988;28;19966;-74
2021/03/17 10:50:55;;;;;;;;;;;16.20;60.70;;;;;;5028881;28;19971;-73
2021/03/17 10:53:24;;;;;;;;;;;16.30;60.70;;;;;;5047963;28;19909;-75
2021/03/17 10:55:50;;;;;;;;;;;16.30;60.70;;;;;;5065920;28;19952;-74
2021/03/17 10:58:17;;;;;;;;;;;16.30;60.60;;;;;;5026456;28;20430;-74
2021/03/17 11:00:48;;;;;;;;;;;16.30;60.60;;;;;;5045108;28;19951;-72
2021/03/17 11:03:40;;;;;;;;;;;16.30;60.70;;;;;;5044670;28;19920;-73
2021/03/17 11:06:16;;;;;;;;;;;16.30;60.60;;;;;;5023485;28;19913;-73
2021/03/17 11:08:42;;;;;;;;;;;16.30;60.50;;;;;;5045947;28;20003;-75
2021/03/17 11:11:09;;;;;;;;;;;16.30;60.50;;;;;;5040667;28;19921;-73
2021/03/17 11:13:35;;;;;;;;;;;16.30;60.50;;;;;;5042198;28;20347;-73
2021/03/17 11:16:02;;;;;;;;;;;16.30;60.50;;;;;;5019867;28;19924;-74
2021/03/17 11:18:32;;;;;;;;;;;16.30;60.50;;;;;;5041487;28;19948;-74
2021/03/17 11:21:03;;;;;;;;;;;16.30;60.60;;;;;;5057967;28;20344;-76
2021/03/17 11:23:39;;;;;;;;;;;16.30;60.70;;;;;;5047218;28;19913;-78
2021/03/17 11:26:06;;;;;;;;;;;16.20;60.70;;;;;;5052819;28;19921;-76
2021/03/17 11:28:37;;;;;;;;;;;16.20;60.80;;;;;;5047613;28;19956;-78
2021/03/17 11:31:04;;;;;;;;;;;16.20;60.90;;;;;;5038893;28;19921;-76
2021/03/17 11:33:30;;;;;;;;;;;16.20;60.80;;;;;;5042696;28;19917;-76
2021/03/17 11:35:57;;;;;;;;;;;16.30;60.70;;;;;;5051418;28;19966;-76
2021/03/17 11:38:23;;;;;;;;;;;16.30;60.60;;;;;;5051791;28;19913;-76
2021/03/17 11:40:49;;;;;;;;;;;16.30;60.50;;;;;;5050469;28;19925;-78
2021/03/17 11:43:19;;;;;;;;;;;16.30;60.60;;;;;;5025997;28;19921;-76
2021/03/17 11:45:46;;;;;;;;;;;16.20;60.70;;;;;;5026647;28;20003;-76
2021/03/17 11:48:11;;;;;;;;;;;16.20;60.80;;;;;;5043363;28;20011;-76
2021/03/17 11:50:38;;;;;;;;;;;16.20;60.90;;;;;;5039338;28;19996;-76
2021/03/17 11:53:04;;;;;;;;;;;16.20;60.90;;;;;;5047977;28;20000;-76
2021/03/17 11:55:30;;;;;;;;;;;16.20;60.90;;;;;;5051659;28;20003;-76
2021/03/17 11:57:55;;;;;;;;;;;16.20;60.90;;;;;;5048961;28;20003;-75
2021/03/17 12:00:21;;;;;;;;;;;16.20;60.80;;;;;;5066446;28;19956;-75
2021/03/17 12:02:46;;;;;;;;;;;16.20;60.90;;;;;;5031811;28;19920;-75
2021/03/17 12:05:13;;;;;;;;;;;16.20;60.80;;;;;;5053222;28;19913;-75
2021/03/17 12:07:38;;;;;;;;;;;16.20;60.80;;;;;;5029188;28;19939;-75
2021/03/17 12:10:05;;;;;;;;;;;16.20;60.80;;;;;;5034447;28;19913;-76
2021/03/17 12:12:31;;;;;;;;;;;16.20;60.80;;;;;;5059660;28;19912;-76
2021/03/17 12:14:57;;;;;;;;;;;16.20;60.80;;;;;;5030349;28;20264;-75
2021/03/17 12:17:22;;;;;;;;;;;16.20;60.80;;;;;;5032063;28;20273;-76
2021/03/17 12:19:50;;;;;;;;;;;16.30;60.80;;;;;;5030793;28;19920;-76
2021/03/17 12:22:16;;;;;;;;;;;16.20;60.80;;;;;;5067744;28;20374;-76
2021/03/17 12:24:44;;;;;;;;;;;16.20;60.80;;;;;;5035833;28;20039;-75
2021/03/17 12:27:10;;;;;;;;;;;16.30;60.80;;;;;;5052232;28;19917;-75
2021/03/17 12:29:36;;;;;;;;;;;16.30;60.70;;;;;;5033786;28;20326;-77
2021/03/17 12:32:01;;;;;;;;;;;16.30;60.60;;;;;;5048400;28;19913;-78
2021/03/17 12:34:28;;;;;;;;;;;16.30;60.50;;;;;;5031608;28;19912;-75
2021/03/17 12:36:54;;;;;;;;;;;16.30;60.40;;;;;;5044771;28;19920;-77
2021/03/17 12:39:20;;;;;;;;;;;16.30;60.30;;;;;;5047467;28;19971;-76
2021/03/17 12:41:46;;;;;;;;;;;16.30;60.40;;;;;;5046241;28;21547;-76
2021/03/17 12:44:11;;;;;;;;;;;16.30;60.30;;;;;;5050458;28;19913;-77
2021/03/17 12:46:37;;;;;;;;;;;16.40;60.30;;;;;;5045160;28;20298;-76
2021/03/17 12:49:03;;;;;;;;;;;16.30;60.20;;;;;;5034643;28;19913;-79
2021/03/17 12:51:28;;;;;;;;;;;16.40;60.30;;;;;;5063650;28;20317;-76
2021/03/17 12:53:54;;;;;;;;;;;16.40;60.20;;;;;;5040967;28;20428;-76
2021/03/17 12:56:20;;;;;;;;;;;16.30;60.30;;;;;;5049993;28;19940;-76
2021/03/17 12:58:45;;;;;;;;;;;16.40;60.20;;;;;;5032519;28;19913;-76
2021/03/17 13:01:11;;;;;;;;;;;16.40;60.20;;;;;;5043011;28;19967;-76
2021/03/17 13:03:36;;;;;;;;;;;16.30;60.30;;;;;;5041361;28;19970;-76
2021/03/17 13:06:02;;;;;;;;;;;16.40;60.30;;;;;;5049092;28;19917;-76
2021/03/17 13:08:28;;;;;;;;;;;16.30;60.30;;;;;;5049547;28;20413;-76
2021/03/17 13:10:54;;;;;;;;;;;16.30;60.40;;;;;;5028217;28;19920;-75
2021/03/17 13:13:19;;;;;;;;;;;16.30;60.40;;;;;;5034220;28;20474;-76
2021/03/17 13:15:45;;;;;;;;;;;16.30;60.40;;;;;;5032413;28;20431;-76
2021/03/17 13:18:11;;;;;;;;;;;16.30;60.40;;;;;;5030117;28;19913;-75
2021/03/17 13:20:36;;;;;;;;;;;16.30;60.40;;;;;;5047916;28;19921;-75
2021/03/17 13:23:02;;;;;;;;;;;16.30;60.40;;;;;;5049028;28;19920;-76
2021/03/17 13:25:28;;;;;;;;;;;16.30;60.30;;;;;;5045155;28;19952;-75
2021/03/17 13:27:54;;;;;;;;;;;16.40;60.30;;;;;;5045209;28;19912;-75
2021/03/17 13:30:19;;;;;;;;;;;16.40;60.30;;;;;;5044339;28;19919;-76
2021/03/17 13:32:45;;;;;;;;;;;16.30;60.30;;;;;;5044063;28;19920;-75
2021/03/17 13:35:11;;;;;;;;;;;16.40;60.30;;;;;;5043109;28;20019;-75
2021/03/17 13:37:37;;;;;;;;;;;16.30;60.30;;;;;;5043511;28;20381;-76
2021/03/17 13:40:04;;;;;;;;;;;16.30;60.40;;;;;;5023827;28;20000;-77
2021/03/17 13:42:29;;;;;;;;;;;16.30;60.40;;;;;;5028631;28;19921;-75
2021/03/17 13:45:00;;;;;;;;;;;16.30;60.50;;;;;;5026325;28;19920;-76
2021/03/17 13:47:25;;;;;;;;;;;16.30;60.60;;;;;;5046544;28;19912;-73
2021/03/17 13:49:51;;;;;;;;;;;16.30;60.60;;;;;;5045724;28;20282;-74
2021/03/17 13:52:16;;;;;;;;;;;16.30;60.70;;;;;;5032892;28;20259;-74
2021/03/17 13:54:42;;;;;;;;;;;16.30;60.80;;;;;;5051919;28;19924;-74
2021/03/17 13:57:12;;;;;;;;;;;16.20;60.90;;;;;;5048320;28;19917;-74
2021/03/17 13:59:38;;;;;;;;;;;16.20;60.90;;;;;;5035967;28;19913;-74
2021/03/17 14:02:03;;;;;;;;;;;16.20;61.00;;;;;;5049120;28;20034;-74
2021/03/17 14:04:29;;;;;;;;;;;16.20;60.90;;;;;;5049045;28;19974;-74
2021/03/17 14:06:54;;;;;;;;;;;16.20;60.90;;;;;;5050872;28;20416;-73
2021/03/17 14:09:20;;;;;;;;;;;16.30;60.80;;;;;;5050256;28;19921;-74
2021/03/17 14:11:45;;;;;;;;;;;16.20;60.70;;;;;;5044405;28;19925;-74
2021/03/17 14:14:11;;;;;;;;;;;16.20;60.70;;;;;;5025451;28;20386;-74
2021/03/17 14:16:37;;;;;;;;;;;16.30;60.70;;;;;;5043102;28;19919;-74
2021/03/17 14:19:05;;;;;;;;;;;16.30;60.60;;;;;;5044254;28;20358;-75